sensor_id;sensor_type;location;lat;lon;timestamp;pressure;altitude;pressure_sealevel;temperature;humidity
63663;BME280;49815;51.618;0.336;2023-02-04T00:00:15;102748.26;;;9.37;46.85
63663;BME280;49815;51.618;0.336;2023-02-04T00:02:38;102751.50;;;10.16;46.46
63663;BME280;49815;51.618;0.336;2023-02-04T00:05:02;102751.51;;;10.33;46.57
63663;BME280;49815;51.618;0.336;2023-02-04T00:07:28;102753.59;;;10.14;46.47
63663;BME280;49815;51.618;0.336;2023-02-04T00:09:53;102757.93;;;10.14;46.68
63663;BME280;49815;51.618;0.336;2023-02-04T00:12:18;102755.67;;;10.31;46.60
63663;BME280;49815;51.618;0.336;2023-02-04T00:14:44;102756.83;;;10.08;46.73
63663;BME280;49815;51.618;0.336;2023-02-04T00:17:10;102758.60;;;10.02;46.86
63663;BME280;49815;51.618;0.336;2023-02-04T00:19:35;102756.34;;;9.89;46.97
63663;BME280;49815;51.618;0.336;2023-02-04T00:22:00;102753.06;;;10.02;47.07
63663;BME280;49815;51.618;0.336;2023-02-04T00:24:26;102755.26;;;10.26;47.25
63663;BME280;49815;51.618;0.336;2023-02-04T00:26:52;102756.43;;;10.24;47.02
63663;BME280;49815;51.618;0.336;2023-02-04T00:29:17;102756.95;;;10.19;47.11
63663;BME280;49815;51.618;0.336;2023-02-04T00:31:42;102754.48;;;10.31;46.74
63663;BME280;49815;51.618;0.336;2023-02-04T00:34:08;102756.58;;;9.94;47.30
63663;BME280;49815;51.618;0.336;2023-02-04T00:36:33;102757.60;;;9.97;47.37
63663;BME280;49815;51.618;0.336;2023-02-04T00:38:59;102757.19;;;10.11;47.09
63663;BME280;49815;51.618;0.336;2023-02-04T00:41:24;102756.32;;;10.07;46.96
63663;BME280;49815;51.618;0.336;2023-02-04T00:43:50;102751.91;;;10.22;47.40
63663;BME280;49815;51.618;0.336;2023-02-04T00:46:15;102751.68;;;9.83;47.32
63663;BME280;49815;51.618;0.336;2023-02-04T00:48:40;102752.60;;;9.89;47.14
63663;BME280;49815;51.618;0.336;2023-02-04T00:51:06;102750.27;;;9.84;47.31
63663;BME280;49815;51.618;0.336;2023-02-04T00:53:31;102754.95;;;9.73;47.37
63663;BME280;49815;51.618;0.336;2023-02-04T00:55:56;102753.21;;;9.76;47.29
63663;BME280;49815;51.618;0.336;2023-02-04T00:58:22;102757.20;;;9.89;46.95
63663;BME280;49815;51.618;0.336;2023-02-04T01:00:47;102758.13;;;9.79;47.06
63663;BME280;49815;51.618;0.336;2023-02-04T01:03:12;102761.03;;;10.00;46.64
63663;BME280;49815;51.618;0.336;2023-02-04T01:05:37;102762.94;;;9.53;46.83
63663;BME280;49815;51.618;0.336;2023-02-04T01:08:03;102764.89;;;10.10;46.44
63663;BME280;49815;51.618;0.336;2023-02-04T01:10:29;102764.11;;;9.78;46.52
63663;BME280;49815;51.618;0.336;2023-02-04T01:12:54;102770.58;;;9.17;46.60
63663;BME280;49815;51.618;0.336;2023-02-04T01:15:19;102774.42;;;9.88;46.36
63663;BME280;49815;51.618;0.336;2023-02-04T01:17:45;102773.25;;;9.78;46.61
63663;BME280;49815;51.618;0.336;2023-02-04T01:20:11;102775.53;;;9.59;46.49
63663;BME280;49815;51.618;0.336;2023-02-04T01:22:36;102781.13;;;9.81;46.54
63663;BME280;49815;51.618;0.336;2023-02-04T01:25:01;102779.22;;;9.78;46.86
63663;BME280;49815;51.618;0.336;2023-02-04T01:27:27;102780.08;;;9.48;46.80
63663;BME280;49815;51.618;0.336;2023-02-04T01:29:52;102783.26;;;9.74;46.62
63663;BME280;49815;51.618;0.336;2023-02-04T01:32:17;102781.14;;;9.87;46.52
63663;BME280;49815;51.618;0.336;2023-02-04T01:34:43;102782.34;;;9.63;46.66
63663;BME280;49815;51.618;0.336;2023-02-04T01:37:08;102779.96;;;9.32;46.31
63663;BME280;49815;51.618;0.336;2023-02-04T01:39:34;102781.13;;;10.08;46.23
63663;BME280;49815;51.618;0.336;2023-02-04T01:41:59;102779.35;;;9.98;46.01
63663;BME280;49815;51.618;0.336;2023-02-04T01:44:25;102781.65;;;9.83;46.15
63663;BME280;49815;51.618;0.336;2023-02-04T01:46:51;102784.60;;;10.11;46.09
63663;BME280;49815;51.618;0.336;2023-02-04T01:49:16;102782.19;;;9.63;46.11
63663;BME280;49815;51.618;0.336;2023-02-04T01:51:41;102784.47;;;9.48;46.23
63663;BME280;49815;51.618;0.336;2023-02-04T01:54:09;102789.73;;;9.50;46.23
63663;BME280;49815;51.618;0.336;2023-02-04T01:56:32;102787.99;;;9.49;46.36
63663;BME280;49815;51.618;0.336;2023-02-04T01:58:57;102788.86;;;9.49;46.53
63663;BME280;49815;51.618;0.336;2023-02-04T02:01:33;102788.92;;;9.31;46.56
63663;BME280;49815;51.618;0.336;2023-02-04T02:03:48;102787.72;;;9.48;46.50
63663;BME280;49815;51.618;0.336;2023-02-04T02:06:14;102791.01;;;9.26;46.54
63663;BME280;49815;51.618;0.336;2023-02-04T02:08:39;102793.30;;;9.24;46.51
63663;BME280;49815;51.618;0.336;2023-02-04T02:11:05;102794.84;;;9.19;46.60
63663;BME280;49815;51.618;0.336;2023-02-04T02:13:30;102792.77;;;9.43;46.29
63663;BME280;49815;51.618;0.336;2023-02-04T02:15:55;102793.94;;;9.30;47.16
63663;BME280;49815;51.618;0.336;2023-02-04T02:18:22;102790.99;;;9.24;46.75
63663;BME280;49815;51.618;0.336;2023-02-04T02:20:46;102790.72;;;9.35;46.93
63663;BME280;49815;51.618;0.336;2023-02-04T02:23:17;102790.76;;;9.51;46.59
63663;BME280;49815;51.618;0.336;2023-02-04T02:25:38;102791.56;;;9.50;46.62
63663;BME280;49815;51.618;0.336;2023-02-04T02:28:08;102789.39;;;9.40;46.58
63663;BME280;49815;51.618;0.336;2023-02-04T02:30:29;102787.94;;;9.63;46.31
63663;BME280;49815;51.618;0.336;2023-02-04T02:32:54;102783.96;;;9.52;46.46
63663;BME280;49815;51.618;0.336;2023-02-04T02:35:20;102783.44;;;9.50;46.50
63663;BME280;49815;51.618;0.336;2023-02-04T02:37:45;102784.77;;;9.31;46.77
63663;BME280;49815;51.618;0.336;2023-02-04T02:40:11;102788.58;;;9.46;46.68
63663;BME280;49815;51.618;0.336;2023-02-04T02:42:37;102788.16;;;9.85;46.57
63663;BME280;49815;51.618;0.336;2023-02-04T02:45:03;102784.06;;;9.60;47.19
63663;BME280;49815;51.618;0.336;2023-02-04T02:47:27;102784.33;;;9.40;47.13
63663;BME280;49815;51.618;0.336;2023-02-04T02:49:53;102780.95;;;9.00;46.94
63663;BME280;49815;51.618;0.336;2023-02-04T02:52:19;102784.28;;;9.43;46.78
63663;BME280;49815;51.618;0.336;2023-02-04T02:54:44;102785.40;;;9.22;47.04
63663;BME280;49815;51.618;0.336;2023-02-04T02:57:12;102783.63;;;9.25;46.99
63663;BME280;49815;51.618;0.336;2023-02-04T02:59:34;102788.68;;;9.83;47.06
63663;BME280;49815;51.618;0.336;2023-02-04T03:02:02;102794.86;;;9.64;47.01
63663;BME280;49815;51.618;0.336;2023-02-04T03:04:25;102790.87;;;9.35;46.95
63663;BME280;49815;51.618;0.336;2023-02-04T03:06:51;102789.51;;;9.40;47.02
63663;BME280;49815;51.618;0.336;2023-02-04T03:09:15;102791.11;;;9.40;47.14
63663;BME280;49815;51.618;0.336;2023-02-04T03:11:41;102786.05;;;9.29;47.28
63663;BME280;49815;51.618;0.336;2023-02-04T03:14:07;102781.15;;;9.32;47.35
63663;BME280;49815;51.618;0.336;2023-02-04T03:16:33;102780.23;;;9.72;47.54
63663;BME280;49815;51.618;0.336;2023-02-04T03:18:57;102780.48;;;9.22;48.62
63663;BME280;49815;51.618;0.336;2023-02-04T03:21:22;102778.21;;;9.45;48.19
63663;BME280;49815;51.618;0.336;2023-02-04T03:23:47;102773.62;;;9.41;48.05
63663;BME280;49815;51.618;0.336;2023-02-04T03:26:12;102769.29;;;9.09;47.82
63663;BME280;49815;51.618;0.336;2023-02-04T03:28:39;102774.29;;;9.50;47.59
63663;BME280;49815;51.618;0.336;2023-02-04T03:31:04;102773.94;;;9.54;47.62
63663;BME280;49815;51.618;0.336;2023-02-04T03:33:29;102770.70;;;9.43;47.87
63663;BME280;49815;51.618;0.336;2023-02-04T03:35:54;102772.81;;;9.22;48.14
63663;BME280;49815;51.618;0.336;2023-02-04T03:38:20;102776.46;;;9.02;48.57
63663;BME280;49815;51.618;0.336;2023-02-04T03:40:45;102778.82;;;9.27;48.72
63663;BME280;49815;51.618;0.336;2023-02-04T03:43:11;102776.03;;;9.25;48.41
63663;BME280;49815;51.618;0.336;2023-02-04T03:45:36;102774.49;;;9.28;48.33
63663;BME280;49815;51.618;0.336;2023-02-04T03:48:02;102779.18;;;9.57;48.33
63663;BME280;49815;51.618;0.336;2023-02-04T03:50:26;102778.58;;;9.26;48.49
63663;BME280;49815;51.618;0.336;2023-02-04T03:52:52;102774.96;;;9.66;48.30
63663;BME280;49815;51.618;0.336;2023-02-04T03:55:17;102773.54;;;9.72;48.41
63663;BME280;49815;51.618;0.336;2023-02-04T03:57:43;102776.14;;;9.86;48.32
63663;BME280;49815;51.618;0.336;2023-02-04T04:00:09;102776.62;;;9.26;48.70
63663;BME280;49815;51.618;0.336;2023-02-04T04:02:34;102779.33;;;9.27;48.40
63663;BME280;49815;51.618;0.336;2023-02-04T04:04:59;102778.12;;;9.51;48.74
63663;BME280;49815;51.618;0.336;2023-02-04T04:07:25;102780.68;;;9.42;48.60
63663;BME280;49815;51.618;0.336;2023-02-04T04:09:51;102784.10;;;9.40;48.42
63663;BME280;49815;51.618;0.336;2023-02-04T04:12:16;102785.69;;;9.67;48.32
63663;BME280;49815;51.618;0.336;2023-02-04T04:14:41;102781.79;;;9.50;48.31
63663;BME280;49815;51.618;0.336;2023-02-04T04:17:08;102786.33;;;9.70;48.37
63663;BME280;49815;51.618;0.336;2023-02-04T04:19:32;102790.94;;;9.80;48.31
63663;BME280;49815;51.618;0.336;2023-02-04T04:21:57;102790.72;;;9.38;48.45
63663;BME280;49815;51.618;0.336;2023-02-04T04:24:23;102794.72;;;9.32;48.48
63663;BME280;49815;51.618;0.336;2023-02-04T04:26:48;102801.78;;;9.46;48.46
63663;BME280;49815;51.618;0.336;2023-02-04T04:29:13;102806.75;;;9.28;48.18
63663;BME280;49815;51.618;0.336;2023-02-04T04:31:38;102805.45;;;9.58;48.23
63663;BME280;49815;51.618;0.336;2023-02-04T04:34:04;102811.93;;;9.50;48.40
63663;BME280;49815;51.618;0.336;2023-02-04T04:36:29;102809.34;;;9.50;48.50
63663;BME280;49815;51.618;0.336;2023-02-04T04:38:55;102810.49;;;9.48;48.49
63663;BME280;49815;51.618;0.336;2023-02-04T04:41:20;102808.95;;;9.17;48.89
63663;BME280;49815;51.618;0.336;2023-02-04T04:43:46;102807.94;;;9.46;49.03
63663;BME280;49815;51.618;0.336;2023-02-04T04:46:12;102803.13;;;9.17;48.89
63663;BME280;49815;51.618;0.336;2023-02-04T04:48:38;102803.22;;;9.55;48.64
63663;BME280;49815;51.618;0.336;2023-02-04T04:51:03;102809.17;;;9.47;48.33
63663;BME280;49815;51.618;0.336;2023-02-04T04:53:28;102813.17;;;9.40;48.41
63663;BME280;49815;51.618;0.336;2023-02-04T04:55:53;102807.60;;;9.22;48.43
63663;BME280;49815;51.618;0.336;2023-02-04T04:58:19;102809.72;;;9.15;49.15
63663;BME280;49815;51.618;0.336;2023-02-04T05:00:44;102809.87;;;9.51;49.15
63663;BME280;49815;51.618;0.336;2023-02-04T05:03:09;102805.63;;;9.10;48.84
63663;BME280;49815;51.618;0.336;2023-02-04T05:05:35;102809.27;;;9.54;48.95
63663;BME280;49815;51.618;0.336;2023-02-04T05:08:01;102809.08;;;9.08;48.96
63663;BME280;49815;51.618;0.336;2023-02-04T05:10:26;102808.10;;;9.14;48.96
63663;BME280;49815;51.618;0.336;2023-02-04T05:12:52;102806.67;;;9.43;48.99
63663;BME280;49815;51.618;0.336;2023-02-04T05:15:17;102814.46;;;9.11;48.98
63663;BME280;49815;51.618;0.336;2023-02-04T05:17:42;102816.32;;;8.82;49.40
63663;BME280;49815;51.618;0.336;2023-02-04T05:20:09;102816.46;;;8.93;49.54
63663;BME280;49815;51.618;0.336;2023-02-04T05:22:33;102816.55;;;9.39;49.40
63663;BME280;49815;51.618;0.336;2023-02-04T05:24:59;102814.53;;;9.31;49.53
63663;BME280;49815;51.618;0.336;2023-02-04T05:27:24;102814.66;;;8.99;49.53
63663;BME280;49815;51.618;0.336;2023-02-04T05:29:50;102816.52;;;9.33;49.61
63663;BME280;49815;51.618;0.336;2023-02-04T05:32:15;102818.79;;;9.03;49.78
63663;BME280;49815;51.618;0.336;2023-02-04T05:34:40;102825.79;;;9.40;49.57
63663;BME280;49815;51.618;0.336;2023-02-04T05:37:05;102828.78;;;9.47;49.31
63663;BME280;49815;51.618;0.336;2023-02-04T05:39:31;102828.07;;;9.41;49.11
63663;BME280;49815;51.618;0.336;2023-02-04T05:41:56;102827.73;;;9.41;49.58
63663;BME280;49815;51.618;0.336;2023-02-04T05:44:22;102825.43;;;9.39;49.46
63663;BME280;49815;51.618;0.336;2023-02-04T05:46:47;102828.17;;;9.14;49.68
63663;BME280;49815;51.618;0.336;2023-02-04T05:49:12;102835.36;;;8.76;49.84
63663;BME280;49815;51.618;0.336;2023-02-04T05:51:38;102834.19;;;8.83;49.84
63663;BME280;49815;51.618;0.336;2023-02-04T05:54:03;102832.83;;;9.36;50.02
63663;BME280;49815;51.618;0.336;2023-02-04T05:56:28;102836.28;;;8.96;49.64
63663;BME280;49815;51.618;0.336;2023-02-04T05:58:54;102834.73;;;8.94;49.72
63663;BME280;49815;51.618;0.336;2023-02-04T06:01:19;102833.95;;;9.36;49.75
63663;BME280;49815;51.618;0.336;2023-02-04T06:03:44;102834.71;;;9.34;49.89
63663;BME280;49815;51.618;0.336;2023-02-04T06:06:10;102840.72;;;9.23;50.07
63663;BME280;49815;51.618;0.336;2023-02-04T06:08:36;102843.47;;;9.03;50.37
63663;BME280;49815;51.618;0.336;2023-02-04T06:11:01;102843.76;;;9.36;50.10
63663;BME280;49815;51.618;0.336;2023-02-04T06:13:26;102845.49;;;9.18;50.36
63663;BME280;49815;51.618;0.336;2023-02-04T06:15:52;102844.50;;;9.52;50.18
63663;BME280;49815;51.618;0.336;2023-02-04T06:18:18;102845.53;;;8.87;50.07
63663;BME280;49815;51.618;0.336;2023-02-04T06:20:43;102851.69;;;9.00;50.16
63663;BME280;49815;51.618;0.336;2023-02-04T06:23:08;102855.98;;;8.85;50.45
63663;BME280;49815;51.618;0.336;2023-02-04T06:25:34;102855.61;;;9.41;50.42
63663;BME280;49815;51.618;0.336;2023-02-04T06:27:59;102858.05;;;9.16;50.57
63663;BME280;49815;51.618;0.336;2023-02-04T06:30:25;102860.79;;;9.23;50.36
63663;BME280;49815;51.618;0.336;2023-02-04T06:32:50;102862.05;;;8.92;51.11
63663;BME280;49815;51.618;0.336;2023-02-04T06:35:15;102860.58;;;9.19;50.97
63663;BME280;49815;51.618;0.336;2023-02-04T06:37:42;102864.13;;;9.09;50.84
63663;BME280;49815;51.618;0.336;2023-02-04T06:40:09;102864.01;;;8.94;51.20
63663;BME280;49815;51.618;0.336;2023-02-04T06:42:32;102869.75;;;9.04;50.95
63663;BME280;49815;51.618;0.336;2023-02-04T06:44:58;102869.71;;;9.18;51.35
63663;BME280;49815;51.618;0.336;2023-02-04T06:47:24;102868.34;;;9.03;51.50
63663;BME280;49815;51.618;0.336;2023-02-04T06:49:49;102871.60;;;9.16;51.11
63663;BME280;49815;51.618;0.336;2023-02-04T06:52:14;102872.52;;;9.03;51.13
63663;BME280;49815;51.618;0.336;2023-02-04T06:54:40;102878.11;;;8.87;51.38
63663;BME280;49815;51.618;0.336;2023-02-04T06:57:05;102876.55;;;9.01;51.37
63663;BME280;49815;51.618;0.336;2023-02-04T06:59:30;102877.99;;;9.01;51.35
63663;BME280;49815;51.618;0.336;2023-02-04T07:01:56;102878.65;;;9.25;50.90
63663;BME280;49815;51.618;0.336;2023-02-04T07:04:21;102879.07;;;9.18;51.09
63663;BME280;49815;51.618;0.336;2023-02-04T07:06:47;102882.47;;;9.07;51.18
63663;BME280;49815;51.618;0.336;2023-02-04T07:09:12;102883.51;;;9.10;51.31
63663;BME280;49815;51.618;0.336;2023-02-04T07:11:38;102883.98;;;9.26;51.02
63663;BME280;49815;51.618;0.336;2023-02-04T07:14:03;102881.94;;;9.09;51.36
63663;BME280;49815;51.618;0.336;2023-02-04T07:16:29;102881.87;;;9.10;51.48
63663;BME280;49815;51.618;0.336;2023-02-04T07:18:54;102882.55;;;8.66;51.80
63663;BME280;49815;51.618;0.336;2023-02-04T07:21:19;102883.49;;;8.71;52.07
63663;BME280;49815;51.618;0.336;2023-02-04T07:23:45;102884.18;;;9.10;51.55
63663;BME280;49815;51.618;0.336;2023-02-04T07:26:10;102891.00;;;8.71;51.42
63663;BME280;49815;51.618;0.336;2023-02-04T07:28:36;102892.22;;;8.99;51.66
63663;BME280;49815;51.618;0.336;2023-02-04T07:31:01;102894.91;;;9.20;51.50
63663;BME280;49815;51.618;0.336;2023-02-04T07:33:26;102892.86;;;8.93;51.35
63663;BME280;49815;51.618;0.336;2023-02-04T07:35:52;102897.47;;;9.34;51.31
63663;BME280;49815;51.618;0.336;2023-02-04T07:38:17;102900.01;;;9.37;51.16
63663;BME280;49815;51.618;0.336;2023-02-04T07:40:42;102898.28;;;9.46;51.13
63663;BME280;49815;51.618;0.336;2023-02-04T07:43:09;102898.41;;;9.05;51.13
63663;BME280;49815;51.618;0.336;2023-02-04T07:45:33;102898.75;;;9.10;51.08
63663;BME280;49815;51.618;0.336;2023-02-04T07:47:59;102900.52;;;8.91;51.21
63663;BME280;49815;51.618;0.336;2023-02-04T07:50:24;102902.01;;;9.35;50.99
63663;BME280;49815;51.618;0.336;2023-02-04T07:52:50;102906.78;;;9.61;50.76
63663;BME280;49815;51.618;0.336;2023-02-04T07:55:15;102911.05;;;9.29;50.91
63663;BME280;49815;51.618;0.336;2023-02-04T07:57:40;102918.98;;;8.65;51.25
63663;BME280;49815;51.618;0.336;2023-02-04T08:00:08;102924.48;;;9.20;50.71
63663;BME280;49815;51.618;0.336;2023-02-04T08:02:31;102929.54;;;9.26;50.96
63663;BME280;49815;51.618;0.336;2023-02-04T08:04:56;102928.43;;;9.04;51.21
63663;BME280;49815;51.618;0.336;2023-02-04T08:07:23;102928.90;;;9.63;51.00
63663;BME280;49815;51.618;0.336;2023-02-04T08:09:48;102929.25;;;9.38;51.00
63663;BME280;49815;51.618;0.336;2023-02-04T08:12:13;102930.23;;;9.63;51.11
63663;BME280;49815;51.618;0.336;2023-02-04T08:14:39;102933.52;;;8.99;51.23
63663;BME280;49815;51.618;0.336;2023-02-04T08:17:04;102938.84;;;9.18;51.11
63663;BME280;49815;51.618;0.336;2023-02-04T08:19:30;102945.76;;;9.48;50.80
63663;BME280;49815;51.618;0.336;2023-02-04T08:21:56;102947.79;;;9.22;51.28
63663;BME280;49815;51.618;0.336;2023-02-04T08:24:21;102951.00;;;9.11;51.36
63663;BME280;49815;51.618;0.336;2023-02-04T08:26:46;102945.97;;;9.70;51.36
63663;BME280;49815;51.618;0.336;2023-02-04T08:29:11;102950.15;;;9.59;51.06
63663;BME280;49815;51.618;0.336;2023-02-04T08:31:38;102952.88;;;9.69;51.04
63663;BME280;49815;51.618;0.336;2023-02-04T08:34:03;102955.97;;;9.24;50.88
63663;BME280;49815;51.618;0.336;2023-02-04T08:36:28;102957.75;;;9.36;50.60
63663;BME280;49815;51.618;0.336;2023-02-04T08:38:54;102957.84;;;9.63;50.15
63663;BME280;49815;51.618;0.336;2023-02-04T08:41:19;102958.43;;;9.71;49.94
63663;BME280;49815;51.618;0.336;2023-02-04T08:43:45;102961.70;;;9.52;50.49
63663;BME280;49815;51.618;0.336;2023-02-04T08:46:11;102963.36;;;9.61;50.42
63663;BME280;49815;51.618;0.336;2023-02-04T08:48:36;102963.81;;;9.74;50.50
63663;BME280;49815;51.618;0.336;2023-02-04T08:51:02;102967.78;;;9.82;50.61
63663;BME280;49815;51.618;0.336;2023-02-04T08:53:27;102962.04;;;9.43;50.45
63663;BME280;49815;51.618;0.336;2023-02-04T08:55:53;102959.91;;;9.54;50.35
63663;BME280;49815;51.618;0.336;2023-02-04T08:58:17;102962.16;;;9.52;50.40
63663;BME280;49815;51.618;0.336;2023-02-04T09:00:43;102963.52;;;9.59;50.03
63663;BME280;49815;51.618;0.336;2023-02-04T09:03:09;102967.35;;;9.59;50.20
63663;BME280;49815;51.618;0.336;2023-02-04T09:05:34;102972.28;;;9.61;50.06
63663;BME280;49815;51.618;0.336;2023-02-04T09:07:59;102974.09;;;9.62;50.19
63663;BME280;49815;51.618;0.336;2023-02-04T09:10:25;102975.18;;;9.21;50.62
63663;BME280;49815;51.618;0.336;2023-02-04T09:12:50;102980.09;;;9.15;50.87
63663;BME280;49815;51.618;0.336;2023-02-04T09:15:16;102981.00;;;9.64;50.97
63663;BME280;49815;51.618;0.336;2023-02-04T09:17:42;102983.60;;;9.72;50.61
63663;BME280;49815;51.618;0.336;2023-02-04T09:20:10;102986.60;;;9.72;50.53
63663;BME280;49815;51.618;0.336;2023-02-04T09:22:33;102986.76;;;9.66;50.36
63663;BME280;49815;51.618;0.336;2023-02-04T09:24:58;102989.55;;;9.27;50.20
63663;BME280;49815;51.618;0.336;2023-02-04T09:27:23;102986.86;;;9.44;50.23
63663;BME280;49815;51.618;0.336;2023-02-04T09:29:49;102984.59;;;10.08;50.04
63663;BME280;49815;51.618;0.336;2023-02-04T09:32:14;102985.21;;;10.02;49.76
63663;BME280;49815;51.618;0.336;2023-02-04T09:34:39;102984.43;;;10.05;49.28
63663;BME280;49815;51.618;0.336;2023-02-04T09:37:05;102988.55;;;10.06;49.09
63663;BME280;49815;51.618;0.336;2023-02-04T09:39:31;102984.35;;;10.24;48.91
63663;BME280;49815;51.618;0.336;2023-02-04T09:41:57;102986.01;;;10.20;48.87
63663;BME280;49815;51.618;0.336;2023-02-04T09:44:24;102988.53;;;10.22;48.94
63663;BME280;49815;51.618;0.336;2023-02-04T09:46:49;102987.46;;;10.03;48.91
63663;BME280;49815;51.618;0.336;2023-02-04T09:49:12;102988.89;;;10.10;49.00
63663;BME280;49815;51.618;0.336;2023-02-04T09:51:39;102987.84;;;10.15;49.06
63663;BME280;49815;51.618;0.336;2023-02-04T09:54:07;102987.03;;;10.26;48.70
63663;BME280;49815;51.618;0.336;2023-02-04T09:56:30;102989.32;;;10.63;48.24
63663;BME280;49815;51.618;0.336;2023-02-04T09:58:55;102991.57;;;10.41;48.21
63663;BME280;49815;51.618;0.336;2023-02-04T10:01:20;102994.50;;;10.54;48.15
63663;BME280;49815;51.618;0.336;2023-02-04T10:03:47;102995.25;;;10.50;48.18
63663;BME280;49815;51.618;0.336;2023-02-04T10:06:12;102997.76;;;10.06;47.66
63663;BME280;49815;51.618;0.336;2023-02-04T10:08:36;103001.87;;;9.99;48.12
63663;BME280;49815;51.618;0.336;2023-02-04T10:11:02;103005.77;;;10.65;47.79
63663;BME280;49815;51.618;0.336;2023-02-04T10:13:31;103015.44;;;10.28;47.70
63663;BME280;49815;51.618;0.336;2023-02-04T10:15:53;103017.45;;;10.49;47.72
63663;BME280;49815;51.618;0.336;2023-02-04T10:18:22;103021.61;;;10.21;48.74
63663;BME280;49815;51.618;0.336;2023-02-04T10:20:43;103025.17;;;9.87;48.59
63663;BME280;49815;51.618;0.336;2023-02-04T10:23:09;103018.56;;;10.33;47.98
63663;BME280;49815;51.618;0.336;2023-02-04T10:25:34;103017.90;;;10.34;47.74
63663;BME280;49815;51.618;0.336;2023-02-04T10:27:59;103020.76;;;10.42;47.51
63663;BME280;49815;51.618;0.336;2023-02-04T10:30:26;103020.88;;;10.19;47.99
63663;BME280;49815;51.618;0.336;2023-02-04T10:32:50;103016.99;;;10.78;47.39
63663;BME280;49815;51.618;0.336;2023-02-04T10:35:18;103014.61;;;10.94;46.62
63663;BME280;49815;51.618;0.336;2023-02-04T10:37:41;103015.84;;;10.77;46.02
63663;BME280;49815;51.618;0.336;2023-02-04T10:42:32;103015.75;;;10.72;46.13
63663;BME280;49815;51.618;0.336;2023-02-04T10:44:58;103015.22;;;11.00;45.80
63663;BME280;49815;51.618;0.336;2023-02-04T10:47:25;103019.22;;;11.31;45.64
63663;BME280;49815;51.618;0.336;2023-02-04T10:49:54;103025.66;;;11.60;45.45
63663;BME280;49815;51.618;0.336;2023-02-04T10:52:16;103026.87;;;10.95;45.46
63663;BME280;49815;51.618;0.336;2023-02-04T10:54:39;103030.93;;;10.88;45.52
63663;BME280;49815;51.618;0.336;2023-02-04T10:57:10;103030.29;;;10.68;46.07
63663;BME280;49815;51.618;0.336;2023-02-04T10:59:30;103029.57;;;10.96;45.69
63663;BME280;49815;51.618;0.336;2023-02-04T11:01:57;103030.18;;;10.48;46.40
63663;BME280;49815;51.618;0.336;2023-02-04T11:04:21;103031.46;;;10.92;45.86
63663;BME280;49815;51.618;0.336;2023-02-04T11:06:46;103032.69;;;11.16;45.33
63663;BME280;49815;51.618;0.336;2023-02-04T11:09:12;103032.46;;;10.99;45.01
63663;BME280;49815;51.618;0.336;2023-02-04T11:11:38;103034.65;;;11.36;44.92
63663;BME280;49815;51.618;0.336;2023-02-04T11:14:02;103031.85;;;11.23;44.47
63663;BME280;49815;51.618;0.336;2023-02-04T11:16:30;103033.16;;;11.61;44.26
63663;BME280;49815;51.618;0.336;2023-02-04T11:18:56;103033.32;;;11.08;44.93
63663;BME280;49815;51.618;0.336;2023-02-04T11:21:24;103031.92;;;11.04;44.93
63663;BME280;49815;51.618;0.336;2023-02-04T11:23:45;103033.19;;;10.64;46.21
63663;BME280;49815;51.618;0.336;2023-02-04T11:26:12;103024.47;;;10.93;45.64
63663;BME280;49815;51.618;0.336;2023-02-04T11:28:46;103020.52;;;11.60;44.33
63663;BME280;49815;51.618;0.336;2023-02-04T11:31:02;103019.32;;;11.82;43.72
63663;BME280;49815;51.618;0.336;2023-02-04T11:33:36;103013.47;;;11.61;43.59
63663;BME280;49815;51.618;0.336;2023-02-04T11:36:00;103010.53;;;11.41;44.03
63663;BME280;49815;51.618;0.336;2023-02-04T11:38:24;103012.33;;;11.73;43.60
63663;BME280;49815;51.618;0.336;2023-02-04T11:43:12;103010.75;;;11.76;43.01
63663;BME280;49815;51.618;0.336;2023-02-04T11:45:35;103009.46;;;12.10;43.19
63663;BME280;49815;51.618;0.336;2023-02-04T11:48:02;103009.68;;;12.29;42.78
63663;BME280;49815;51.618;0.336;2023-02-04T11:50:26;103012.60;;;11.80;42.94
63663;BME280;49815;51.618;0.336;2023-02-04T11:52:50;103014.01;;;11.88;42.71
63663;BME280;49815;51.618;0.336;2023-02-04T11:55:16;103012.45;;;12.24;42.63
63663;BME280;49815;51.618;0.336;2023-02-04T11:57:41;103012.21;;;12.13;41.69
63663;BME280;49815;51.618;0.336;2023-02-04T12:00:12;103013.00;;;12.58;42.05
63663;BME280;49815;51.618;0.336;2023-02-04T12:02:40;103013.78;;;12.71;41.39
63663;BME280;49815;51.618;0.336;2023-02-04T12:05:08;103013.29;;;12.68;40.72
63663;BME280;49815;51.618;0.336;2023-02-04T12:07:26;103011.44;;;12.58;41.35
63663;BME280;49815;51.618;0.336;2023-02-04T12:09:47;103013.07;;;12.64;40.96
63663;BME280;49815;51.618;0.336;2023-02-04T12:12:24;103016.74;;;11.88;41.26
63663;BME280;49815;51.618;0.336;2023-02-04T12:14:38;103013.62;;;11.80;40.97
63663;BME280;49815;51.618;0.336;2023-02-04T12:17:14;103011.78;;;11.88;41.44
63663;BME280;49815;51.618;0.336;2023-02-04T12:19:29;103010.21;;;12.27;40.55
63663;BME280;49815;51.618;0.336;2023-02-04T12:21:54;103008.52;;;11.73;40.94
63663;BME280;49815;51.618;0.336;2023-02-04T12:24:19;103012.15;;;11.61;41.47
63663;BME280;49815;51.618;0.336;2023-02-04T12:26:45;103015.51;;;11.84;41.66
63663;BME280;49815;51.618;0.336;2023-02-04T12:29:10;103015.89;;;12.01;40.81
63663;BME280;49815;51.618;0.336;2023-02-04T12:31:36;103015.49;;;12.07;41.22
63663;BME280;49815;51.618;0.336;2023-02-04T12:34:01;103023.00;;;12.21;41.23
63663;BME280;49815;51.618;0.336;2023-02-04T12:36:26;103022.16;;;12.06;40.72
63663;BME280;49815;51.618;0.336;2023-02-04T12:38:51;103022.20;;;12.81;40.21
63663;BME280;49815;51.618;0.336;2023-02-04T12:41:17;103018.46;;;12.58;40.60
63663;BME280;49815;51.618;0.336;2023-02-04T12:43:42;103018.32;;;12.60;40.11
63663;BME280;49815;51.618;0.336;2023-02-04T12:46:09;103019.65;;;12.57;40.01
63663;BME280;49815;51.618;0.336;2023-02-04T12:48:33;103018.03;;;12.13;40.33
63663;BME280;49815;51.618;0.336;2023-02-04T12:50:58;103020.19;;;11.23;41.74